Time;durP1;ratioP1;P1;durP2;ratioP2;P2;SDS_P1;SDS_P2;PMS_P1;PMS_P2;Temp;Humidity;BMP_temperature;BMP_pressure;BME280_temperature;BME280_humidity;BME280_pressure;Samples;Min_cycle;Max_cycle;Signal;HPM_P1;HPM_P2
2023/04/22 00:01:27;;;;;;;17.33;6.23;;;;;;;7.43;100.00;100060.92;123199;1104;104358;-77
2023/04/22 00:03:59;;;;;;;16.43;6.10;;;;;;;7.42;100.00;100056.55;122963;1105;104291;-76
2023/04/22 00:06:31;;;;;;;19.13;6.17;;;;;;;7.44;100.00;100064.45;123033;1105;104254;-78
2023/04/22 00:09:03;;;;;;;17.63;6.30;;;;;;;7.41;100.00;100062.59;123068;1105;104235;-77
2023/04/22 00:11:34;;;;;;;22.00;6.65;;;;;;;7.43;100.00;100063.53;123067;1102;104309;-78
2023/04/22 00:14:06;;;;;;;21.07;5.97;;;;;;;7.41;100.00;100065.20;123038;1102;104251;-77
2023/04/22 00:16:37;;;;;;;16.17;6.03;;;;;;;7.41;100.00;100059.98;122912;1105;104310;-78
2023/04/22 00:19:08;;;;;;;16.43;6.13;;;;;;;7.42;100.00;100068.69;123117;1105;104252;-76
2023/04/22 00:21:39;;;;;;;20.67;6.83;;;;;;;7.42;100.00;100064.37;122960;1102;104251;-79
2023/04/22 00:24:11;;;;;;;19.77;5.93;;;;;;;7.41;100.00;100064.31;123028;1103;104258;-77
2023/04/22 00:26:42;;;;;;;21.50;6.55;;;;;;;7.38;100.00;100063.34;122998;1105;104855;-77
2023/04/22 00:29:13;;;;;;;19.90;5.97;;;;;;;7.37;100.00;100066.80;123010;1105;104400;-76
2023/04/22 00:31:44;;;;;;;21.80;6.30;;;;;;;7.34;100.00;100068.40;123236;1102;104322;-77
2023/04/22 00:34:17;;;;;;;24.50;7.10;;;;;;;7.33;100.00;100066.61;123237;1105;104275;-77
2023/04/22 00:36:48;;;;;;;16.73;6.37;;;;;;;7.30;100.00;100061.26;123191;1105;104220;-77
2023/04/22 00:39:20;;;;;;;24.50;7.23;;;;;;;7.30;100.00;100077.80;123181;1106;104258;-77
2023/04/22 00:41:52;;;;;;;19.05;6.50;;;;;;;7.28;100.00;100068.14;123102;1105;104320;-76
2023/04/22 00:44:24;;;;;;;19.23;7.00;;;;;;;7.26;100.00;100072.38;123018;1105;104274;-77
2023/04/22 00:46:57;;;;;;;20.67;5.93;;;;;;;7.24;100.00;100069.70;123007;1104;104281;-76
2023/04/22 00:49:29;;;;;;;17.53;6.50;;;;;;;7.21;100.00;100077.41;122987;1105;104323;-77
2023/04/22 00:52:00;;;;;;;19.60;7.00;;;;;;;7.19;100.00;100072.13;123022;1105;104389;-78
2023/04/22 00:54:34;;;;;;;27.00;6.80;;;;;;;7.17;100.00;100073.79;122902;1105;104370;-77
2023/04/22 00:57:07;;;;;;;19.87;6.55;;;;;;;7.15;100.00;100079.75;122966;1105;104272;-76
2023/04/22 00:59:39;;;;;;;19.52;6.75;;;;;;;7.11;100.00;100086.58;123128;1103;104692;-76
2023/04/22 01:02:10;;;;;;;22.70;6.50;;;;;;;7.09;100.00;100083.02;123066;1104;104271;-77
2023/04/22 01:04:42;;;;;;;16.43;6.53;;;;;;;7.09;100.00;100076.88;123145;1105;104463;-79
2023/04/22 01:07:13;;;;;;;18.07;5.70;;;;;;;7.06;100.00;100088.10;123070;1102;104364;-77
2023/04/22 01:09:45;;;;;;;15.70;6.27;;;;;;;7.05;100.00;100090.64;123039;1102;104287;-79
2023/04/22 01:12:17;;;;;;;18.47;5.97;;;;;;;7.05;100.00;100086.30;123076;1102;104255;-77
2023/04/22 01:14:49;;;;;;;20.27;6.67;;;;;;;7.04;100.00;100094.06;123003;1102;104281;-77
2023/04/22 01:17:20;;;;;;;20.80;7.03;;;;;;;7.02;100.00;100091.39;123032;1105;104511;-77
2023/04/22 01:19:54;;;;;;;17.57;5.70;;;;;;;7.00;100.00;100091.33;123025;1105;104325;-77
2023/04/22 01:22:28;;;;;;;19.15;5.85;;;;;;;6.98;100.00;100092.98;123180;1104;104478;-77
2023/04/22 01:24:59;;;;;;;19.48;6.15;;;;;;;6.97;100.00;100098.14;123131;1102;104332;-78
2023/04/22 01:27:32;;;;;;;20.50;6.70;;;;;;;6.95;100.00;100100.67;123082;1105;104367;-78
2023/04/22 01:30:04;;;;;;;19.13;6.47;;;;;;;6.92;100.00;100094.41;123132;1102;104264;-77
2023/04/22 01:32:36;;;;;;;18.53;6.23;;;;;;;6.91;100.00;100108.30;122966;1102;104214;-77
2023/04/22 01:35:09;;;;;;;23.10;6.80;;;;;;;6.89;100.00;100103.02;123099;1105;104460;-77
2023/04/22 01:37:41;;;;;;;19.13;7.00;;;;;;;6.87;100.00;100102.03;123074;1102;104281;-79
2023/04/22 01:40:18;;;;;;;21.50;6.53;;;;;;;6.86;100.00;100112.40;123009;1102;104660;-76
2023/04/22 01:42:50;;;;;;;23.70;6.45;;;;;;;6.85;100.00;100106.30;123123;1102;104389;-77
2023/04/22 01:45:21;;;;;;;20.80;7.53;;;;;;;6.84;100.00;100108.03;123022;1102;104379;-77
2023/04/22 01:47:53;;;;;;;23.95;6.75;;;;;;;6.86;100.00;100115.92;123051;1102;104363;-77
2023/04/22 01:50:24;;;;;;;26.73;6.77;;;;;;;6.86;100.00;100101.97;123025;1105;104360;-76
2023/04/22 01:52:56;;;;;;;18.47;7.17;;;;;;;6.88;100.00;100105.55;123158;1102;104283;-77
2023/04/22 01:55:27;;;;;;;23.93;6.70;;;;;;;6.87;100.00;100109.86;123111;1103;104236;-77
2023/04/22 01:57:59;;;;;;;23.47;6.73;;;;;;;6.89;100.00;100109.92;123146;1105;104358;-77
2023/04/22 02:00:30;;;;;;;18.27;6.47;;;;;;;6.89;100.00;100115.14;123143;1105;104418;-77
2023/04/22 02:03:02;;;;;;;20.67;6.63;;;;;;;6.92;100.00;100120.49;123265;1105;105527;-77
2023/04/22 02:05:33;;;;;;;21.30;7.27;;;;;;;6.91;100.00;100109.18;123283;1105;104352;-77
2023/04/22 02:08:04;;;;;;;20.43;6.20;;;;;;;6.92;100.00;100113.59;123247;1102;104405;-77
2023/04/22 02:10:36;;;;;;;27.23;7.00;;;;;;;6.94;100.00;100116.27;123156;1105;104348;-77
2023/04/22 02:13:07;;;;;;;20.77;6.53;;;;;;;6.94;100.00;100111.05;123038;1105;104338;-76
2023/04/22 02:15:40;;;;;;;21.53;6.60;;;;;;;6.94;100.00;100114.53;123006;1105;110150;-77
2023/04/22 02:18:11;;;;;;;29.27;6.60;;;;;;;6.94;100.00;100116.27;123055;1102;104290;-78
2023/04/22 02:20:42;;;;;;;21.83;7.17;;;;;;;6.93;100.00;100117.07;123045;1105;104284;-78
2023/04/22 02:23:14;;;;;;;19.87;6.53;;;;;;;6.92;100.00;100118.80;122997;1105;104485;-78
2023/04/22 02:25:51;;;;;;;21.57;6.35;;;;;;;6.90;100.00;100109.11;123209;1102;104254;-79
2023/04/22 02:28:23;;;;;;;21.93;6.20;;;;;;;6.90;100.00;100116.94;123086;1105;104293;-78
2023/04/22 02:30:54;;;;;;;18.77;6.50;;;;;;;6.89;100.00;100118.66;123127;1102;104281;-77
2023/04/22 02:33:26;;;;;;;17.67;5.97;;;;;;;6.90;100.00;100117.81;123192;1105;104329;-78
2023/04/22 02:35:58;;;;;;;18.00;6.43;;;;;;;6.91;100.00;100116.13;123006;1103;104418;-77
2023/04/22 02:38:29;;;;;;;30.87;7.07;;;;;;;6.92;100.00;100108.37;123096;1103;104393;-77
2023/04/22 02:41:00;;;;;;;23.03;6.57;;;;;;;6.94;100.00;100116.27;122991;1105;104290;-78
2023/04/22 02:43:31;;;;;;;19.03;6.43;;;;;;;6.94;100.00;100113.66;123116;1105;104376;-78
2023/04/22 02:46:03;;;;;;;19.47;5.87;;;;;;;6.96;100.00;100114.60;123085;1105;104302;-77
2023/04/22 02:48:34;;;;;;;25.40;7.00;;;;;;;6.97;100.00;100111.17;123078;1105;104354;-78
2023/04/22 02:51:08;;;;;;;23.00;6.35;;;;;;;6.99;100.00;100119.95;123155;1105;104255;-77
2023/04/22 02:53:39;;;;;;;17.57;6.10;;;;;;;6.99;100.00;100117.34;123097;1102;104367;-78
2023/04/22 02:56:13;;;;;;;14.50;6.00;;;;;;;6.99;100.00;100123.44;123131;1102;104785;-77
2023/04/22 02:58:45;;;;;;;19.83;6.47;;;;;;;6.99;100.00;100122.56;123112;1105;104267;-78
2023/04/22 03:01:16;;;;;;;19.30;6.80;;;;;;;7.00;100.00;100129.58;123097;1104;104316;-78
2023/04/22 03:03:47;;;;;;;24.37;7.07;;;;;;;7.00;100.00;100121.75;123149;1105;104341;-78
2023/04/22 03:06:23;;;;;;;19.50;6.45;;;;;;;7.00;100.00;100122.63;123198;1106;104359;-78
2023/04/22 03:08:55;;;;;;;17.30;5.83;;;;;;;7.02;100.00;100127.91;123173;1103;104233;-78
2023/04/22 03:11:26;;;;;;;16.23;6.10;;;;;;;7.02;100.00;100141.84;123161;1105;104385;-78
2023/04/22 03:13:58;;;;;;;17.00;6.33;;;;;;;7.04;100.00;100138.42;123024;1105;104255;-79
2023/04/22 03:16:32;;;;;;;20.20;6.73;;;;;;;7.04;100.00;100138.42;123204;1103;104402;-77
2023/04/22 03:19:06;;;;;;;18.07;6.57;;;;;;;7.04;100.00;100133.20;123353;1103;104363;-76
2023/04/22 03:21:37;;;;;;;21.53;7.07;;;;;;;7.04;100.00;100139.30;123078;1105;104236;-77
2023/04/22 03:24:09;;;;;;;22.13;6.60;;;;;;;7.06;100.00;100147.19;123185;1105;104210;-77
2023/04/22 03:26:41;;;;;;;23.67;6.67;;;;;;;7.07;100.00;100149.87;123077;1105;104376;-77
2023/04/22 03:29:13;;;;;;;23.67;6.67;;;;;;;7.09;100.00;100149.94;123136;1105;104291;-79
2023/04/22 03:31:44;;;;;;;19.50;6.63;;;;;;;7.09;100.00;100156.07;123033;1105;104699;-76
2023/04/22 03:34:16;;;;;;;23.67;7.00;;;;;;;7.08;100.00;100151.67;123049;1105;104830;-77
2023/04/22 03:36:48;;;;;;;16.87;6.03;;;;;;;7.09;100.00;100153.46;123040;1103;104331;-77
2023/04/22 03:39:19;;;;;;;21.23;6.30;;;;;;;7.12;100.00;100157.90;123001;1105;104351;-77
2023/04/22 03:41:51;;;;;;;16.10;6.60;;;;;;;7.13;100.00;100165.80;123157;1105;104344;-77
2023/04/22 03:44:22;;;;;;;20.70;6.57;;;;;;;7.16;100.00;100162.44;123094;1105;104210;-77
2023/04/22 03:46:54;;;;;;;24.33;6.87;;;;;;;7.19;100.00;100159.97;123128;1103;104351;-78
2023/04/22 03:49:26;;;;;;;;;;;;;;;7.23;100.00;100164.51;123086;1102;104261;-77
2023/04/22 03:52:00;;;;;;;17.97;6.40;;;;;;;7.24;100.00;100170.61;123035;1105;104502;-76
2023/04/22 03:54:31;;;;;;;17.87;5.90;;;;;;;7.26;100.00;100169.86;122967;1102;104281;-77
2023/04/22 03:57:03;;;;;;;22.03;6.80;;;;;;;7.29;100.00;100171.69;122976;1102;104255;-77
2023/04/22 03:59:34;;;;;;;19.43;7.07;;;;;;;7.33;100.00;100173.63;122948;1105;104335;-77
2023/04/22 04:02:07;;;;;;;21.97;6.80;;;;;;;7.36;100.00;100179.86;123075;1103;104375;-78
2023/04/22 04:04:38;;;;;;;19.17;6.80;;;;;;;7.39;100.00;100179.11;122932;1102;104398;-77
2023/04/22 04:07:12;;;;;;;19.15;6.90;;;;;;;7.44;100.00;100187.14;123076;1105;104217;-77
2023/04/22 04:09:43;;;;;;;21.77;6.70;;;;;;;7.48;100.00;100192.56;122970;1105;104275;-76
2023/04/22 04:12:15;;;;;;;18.80;6.63;;;;;;;7.52;100.00;100188.35;123099;1105;104344;-77
2023/04/22 04:14:47;;;;;;;18.80;7.20;;;;;;;7.56;100.00;100195.50;123021;1105;104363;-77
2023/04/22 04:17:24;;;;;;;24.37;7.05;;;;;;;7.61;100.00;100195.70;123058;1104;104283;-77
2023/04/22 04:19:56;;;;;;;23.40;7.17;;;;;;;7.67;100.00;100198.58;123088;1105;104332;-77
2023/04/22 04:22:28;;;;;;;20.77;6.33;;;;;;;7.73;100.00;100204.94;123129;1104;104312;-77
2023/04/22 04:25:02;;;;;;;19.80;6.37;;;;;;;7.79;100.00;100209.55;123026;1104;104358;-77
2023/04/22 04:27:38;;;;;;;19.23;6.40;;;;;;;7.85;100.00;100216.72;123076;1105;104406;-78
2023/04/22 04:30:12;;;;;;;21.50;6.87;;;;;;;7.90;100.00;100207.38;123026;1105;104290;-77
2023/04/22 04:32:47;;;;;;;20.50;6.60;;;;;;;7.94;100.00;100209.27;123123;1105;104252;-78
2023/04/22 04:35:20;;;;;;;22.95;6.60;;;;;;;8.01;100.00;100213.02;123064;1105;104476;-77
2023/04/22 04:37:55;;;;;;;21.20;6.10;;;;;;;8.08;100.00;100212.45;123088;1105;104364;-76
2023/04/22 04:40:28;;;;;;;20.70;5.93;;;;;;;8.14;100.00;100217.05;122994;1105;102424;-77
2023/04/22 04:43:08;;;;;;;19.20;6.90;;;;;;;8.20;100.00;100212.08;123073;1105;104489;-79
2023/04/22 04:45:49;;;;;;;19.00;6.53;;;;;;;8.28;100.00;100224.61;123337;1105;104354;-79
2023/04/22 04:48:23;;;;;;;16.67;5.92;;;;;;;8.37;100.00;100224.09;123443;1102;104230;-78
2023/04/22 04:50:57;;;;;;;18.20;5.80;;;;;;;8.45;100.00;100229.67;123415;1105;104309;-78
2023/04/22 04:53:29;;;;;;;20.53;6.73;;;;;;;8.52;100.00;100222.95;123473;1105;104188;-80
2023/04/22 04:56:01;;;;;;;20.90;5.93;;;;;;;8.59;100.00;100224.98;123434;1105;104383;-81
2023/04/22 04:58:33;;;;;;;21.90;6.20;;;;;;;8.65;100.00;100225.23;123318;1105;104240;-77
2023/04/22 05:01:18;;;;;;;25.88;6.37;;;;;;;8.73;100.00;100235.98;123103;1105;104220;-77
2023/04/22 05:03:50;;;;;;;21.77;5.80;;;;;;;8.78;100.00;100231.81;123144;1105;104252;-77
2023/04/22 05:06:22;;;;;;;18.20;5.60;;;;;;;8.86;100.00;100234.73;123283;1105;104353;-80
2023/04/22 05:08:58;;;;;;;21.57;5.73;;;;;;;8.96;100.00;100228.99;123163;1105;104296;-79
2023/04/22 05:11:29;;;;;;;21.47;5.80;;;;;;;9.03;100.00;100235.38;123318;1103;104364;-80
2023/04/22 05:14:02;;;;;;;18.20;5.80;;;;;;;9.06;100.00;100235.48;123217;1104;104300;-78
2023/04/22 05:16:42;;;;;;;20.43;6.17;;;;;;;9.13;100.00;100232.25;123337;1105;104341;-80
2023/04/22 05:19:13;;;;;;;18.93;6.03;;;;;;;9.17;100.00;100237.66;123419;1105;104670;-78
2023/04/22 05:21:45;;;;;;;19.57;5.73;;;;;;;9.22;100.00;100232.59;123153;1105;104380;-79
2023/04/22 05:24:18;;;;;;;17.53;5.70;;;;;;;9.26;100.00;100234.50;123361;1105;104339;-79
2023/04/22 05:26:49;;;;;;;22.10;6.13;;;;;;;9.32;100.00;100234.72;123267;1105;104370;-79
2023/04/22 05:29:22;;;;;;;21.93;6.00;;;;;;;9.45;100.00;100232.55;123380;1105;104363;-81
2023/04/22 05:31:54;;;;;;;19.80;6.17;;;;;;;9.59;100.00;100233.92;123325;1105;104342;-79
2023/04/22 05:34:25;;;;;;;19.40;6.10;;;;;;;9.71;100.00;100239.59;123465;1105;104479;-79
2023/04/22 05:36:58;;;;;;;19.60;5.80;;;;;;;9.83;100.00;100240.84;123354;1105;104287;-79
2023/04/22 05:39:29;;;;;;;14.80;5.27;;;;;;;9.89;100.00;100236.73;123210;1102;104178;-78
2023/04/22 05:42:02;;;;;;;18.80;6.17;;;;;;;9.92;100.00;100235.05;123309;1104;104290;-79
2023/04/22 05:44:34;;;;;;;22.77;6.37;;;;;;;9.95;100.00;100227.28;123179;1105;104415;-79
2023/04/22 05:47:05;;;;;;;20.63;6.03;;;;;;;9.99;100.00;100230.06;123264;1105;104396;-78
2023/04/22 05:49:36;;;;;;;21.37;6.27;;;;;;;10.08;100.00;100235.61;123376;1105;104261;-79
2023/04/22 05:52:13;;;;;;;22.80;6.43;;;;;;;10.16;100.00;100233.25;123359;1105;104717;-78
2023/04/22 05:54:56;;;;;;;19.43;6.00;;;;;;;10.23;100.00;100227.34;123432;1105;104277;-78
2023/04/22 05:57:27;;;;;;;18.20;6.40;;;;;;;10.30;100.00;100231.08;123381;1103;104328;-79
2023/04/22 06:00:00;;;;;;;18.97;6.30;;;;;;;10.39;100.00;100230.50;123523;1104;104492;-80
2023/04/22 06:02:31;;;;;;;15.77;5.40;;;;;;;10.45;100.00;100235.06;123584;1106;104271;-79
2023/04/22 06:05:03;;;;;;;16.60;6.00;;;;;;;10.52;99.13;100226.55;123409;1103;104431;-79
2023/04/22 06:07:34;;;;;;;22.80;5.67;;;;;;;10.60;99.72;100227.67;123341;1105;104376;-80
2023/04/22 06:10:07;;;;;;;17.30;5.10;;;;;;;10.68;100.00;100230.55;123255;1102;104342;-79
2023/04/22 06:12:38;;;;;;;16.03;5.43;;;;;;;10.73;94.76;100240.31;123336;1106;104870;-79
2023/04/22 06:15:11;;;;;;;17.63;6.13;;;;;;;10.82;97.37;100230.97;123377;1102;104301;-81
2023/04/22 06:17:44;;;;;;;15.98;5.92;;;;;;;10.87;98.01;100230.24;123630;1105;104361;-79
2023/04/22 06:20:15;;;;;;;15.95;5.50;;;;;;;10.94;97.59;100228.72;123527;1105;104399;-81
2023/04/22 06:22:47;;;;;;;15.87;5.77;;;;;;;11.01;98.32;100229.77;123448;1105;104370;-79
2023/04/22 06:25:18;;;;;;;13.27;6.27;;;;;;;11.06;97.28;100233.42;123225;1105;104277;-81
2023/04/22 06:27:50;;;;;;;15.37;5.00;;;;;;;11.12;95.87;100231.84;123419;1105;104473;-79
2023/04/22 06:30:21;;;;;;;13.43;5.17;;;;;;;11.16;96.64;100230.23;123262;1105;104287;-78
2023/04/22 06:32:53;;;;;;;16.70;5.60;;;;;;;11.23;97.46;100234.79;123576;1102;104232;-80
2023/04/22 06:35:25;;;;;;;18.37;5.67;;;;;;;11.34;97.58;100224.59;123389;1104;104395;-79
2023/04/22 06:37:58;;;;;;;11.57;5.28;;;;;;;11.46;96.51;100224.05;123478;1102;104320;-80
2023/04/22 06:40:32;;;;;;;14.90;5.65;;;;;;;11.62;93.94;100233.24;123546;1105;104268;-79
2023/04/22 06:43:22;;;;;;;15.07;5.30;;;;;;;11.81;96.40;100229.36;123204;1103;104284;-79
2023/04/22 06:46:08;;;;;;;13.33;5.10;;;;;;;11.98;96.82;100227.20;123284;1103;104264;-78
2023/04/22 06:49:03;;;;;;;17.40;5.80;;;;;;;12.10;96.83;100231.89;122955;1106;104316;-79
2023/04/22 06:51:53;;;;;;;18.50;5.43;;;;;;;12.16;92.32;100232.93;123284;1102;104370;-78
2023/04/22 06:54:24;;;;;;;15.80;5.13;;;;;;;12.18;87.33;100228.58;123236;1105;104207;-79
2023/04/22 06:56:56;;;;;;;15.80;5.30;;;;;;;12.27;92.14;100227.94;123451;1102;104284;-80
2023/04/22 06:59:28;;;;;;;19.20;5.53;;;;;;;12.35;93.16;100236.89;123752;1105;104369;-79
2023/04/22 07:01:59;;;;;;;12.27;5.13;;;;;;;12.47;91.49;100230.17;123523;1105;104475;-82
2023/04/22 07:04:32;;;;;;;15.03;5.17;;;;;;;12.55;91.20;100229.48;123492;1105;104329;-80
2023/04/22 07:07:04;;;;;;;13.87;4.90;;;;;;;12.64;92.54;100230.56;123490;1103;104238;-80
2023/04/22 07:09:36;;;;;;;14.27;5.30;;;;;;;12.71;89.95;100233.34;123437;1105;104300;-82
2023/04/22 07:12:10;;;;;;;15.40;5.23;;;;;;;12.79;90.47;100236.15;123525;1105;104399;-80
2023/04/22 07:14:46;;;;;;;15.67;5.00;;;;;;;12.88;89.58;100241.63;123452;1105;104330;-80
2023/04/22 07:17:21;;;;;;;17.23;5.27;;;;;;;12.96;88.46;100241.80;123481;1105;104175;-80
2023/04/22 07:19:52;;;;;;;16.93;4.97;;;;;;;13.13;89.68;100239.52;123439;1102;104357;-81
2023/04/22 07:22:23;;;;;;;15.93;5.30;;;;;;;13.22;87.31;100244.11;123479;1105;104312;-79
2023/04/22 07:24:55;;;;;;;16.47;4.87;;;;;;;13.31;87.91;100244.30;123470;1106;104313;-80
2023/04/22 07:27:26;;;;;;;14.93;5.07;;;;;;;13.35;87.20;100247.91;123442;1104;104265;-80
2023/04/22 07:29:57;;;;;;;15.03;5.23;;;;;;;13.37;85.02;100249.73;123362;1103;104332;-79
2023/04/22 07:32:28;;;;;;;16.90;6.13;;;;;;;13.41;86.96;100245.40;123488;1105;104265;-81
2023/04/22 07:35:00;;;;;;;13.90;5.27;;;;;;;13.46;85.02;100249.91;123489;1105;104255;-81
2023/04/22 07:37:31;;;;;;;13.60;5.70;;;;;;;13.52;85.65;100259.67;123583;1105;104255;-79
2023/04/22 07:40:02;;;;;;;18.57;5.13;;;;;;;13.60;86.95;100254.55;123425;1104;106252;-80
2023/04/22 07:42:33;;;;;;;14.57;5.30;;;;;;;13.68;85.97;100257.34;123402;1105;104416;-81
2023/04/22 07:45:06;;;;;;;20.63;6.20;;;;;;;13.76;85.21;100255.72;123946;1105;104281;-80
2023/04/22 07:47:37;;;;;;;17.37;5.70;;;;;;;13.83;84.72;100257.63;123575;1105;104277;-81
2023/04/22 07:50:10;;;;;;;13.50;5.70;;;;;;;13.98;86.65;100254.39;123335;1106;104249;-82
2023/04/22 07:52:41;;;;;;;16.37;4.97;;;;;;;14.11;84.85;100250.22;123298;1105;104403;-80
2023/04/22 07:55:13;;;;;;;13.17;5.47;;;;;;;14.18;85.58;100257.39;123284;1105;104328;-79
2023/04/22 07:57:44;;;;;;;17.20;5.87;;;;;;;14.25;86.51;100266.28;123414;1102;104277;-81
2023/04/22 08:00:17;;;;;;;17.57;5.87;;;;;;;14.26;85.43;100258.39;123225;1105;104255;-79
2023/04/22 08:02:48;;;;;;;13.63;5.30;;;;;;;14.31;86.96;100254.07;123262;1105;104265;-80
2023/04/22 08:05:20;;;;;;;16.57;5.30;;;;;;;14.42;86.94;100256.02;123155;1106;104425;-79
2023/04/22 08:07:51;;;;;;;19.07;5.53;;;;;;;14.47;83.78;100251.68;123406;1105;104280;-79
2023/04/22 08:10:22;;;;;;;16.27;5.07;;;;;;;14.54;84.26;100249.16;123738;1103;104187;-80
2023/04/22 08:12:53;;;;;;;13.27;5.10;;;;;;;14.62;84.05;100251.95;123444;1105;110900;-79
2023/04/22 08:15:25;;;;;;;12.53;5.10;;;;;;;14.64;83.35;100249.34;123201;1105;104262;-79
2023/04/22 08:17:56;;;;;;;16.63;5.40;;;;;;;14.54;78.50;100253.56;123276;1102;104429;-79
2023/04/22 08:20:27;;;;;;;19.00;5.37;;;;;;;14.52;79.66;100253.55;123680;1102;104354;-82
2023/04/22 08:22:59;;;;;;;17.07;5.30;;;;;;;14.45;74.81;100253.42;124489;1103;104284;-80
2023/04/22 08:25:30;;;;;;;11.03;4.80;;;;;;;14.49;76.59;100252.58;123449;1104;104232;-80
2023/04/22 08:28:02;;;;;;;16.63;6.07;;;;;;;14.56;80.62;100252.70;123373;1105;104239;-81
2023/04/22 08:30:33;;;;;;;18.57;6.03;;;;;;;14.63;79.02;100248.47;123350;1102;104478;-81
2023/04/22 08:33:04;;;;;;;18.63;6.20;;;;;;;14.65;80.53;100245.84;123589;1105;104440;-81
2023/04/22 08:35:37;;;;;;;19.50;6.13;;;;;;;14.67;80.61;100255.55;123497;1102;104283;-81
2023/04/22 08:38:08;;;;;;;18.20;5.20;;;;;;;14.66;79.52;100252.88;123547;1105;104367;-79
2023/04/22 08:40:42;;;;;;;16.17;6.40;;;;;;;14.63;81.02;100250.19;123385;1102;104302;-80
2023/04/22 08:43:14;;;;;;;18.77;5.87;;;;;;;14.57;78.67;100240.41;123543;1102;104290;-78
2023/04/22 08:45:47;;;;;;;15.63;5.30;;;;;;;14.53;79.01;100246.50;123373;1105;104284;-79
2023/04/22 08:48:19;;;;;;;17.77;5.73;;;;;;;14.48;77.55;100242.91;123237;1105;104236;-79
2023/04/22 08:50:50;;;;;;;16.67;6.03;;;;;;;14.45;78.74;100238.45;123347;1103;104364;-80
2023/04/22 08:53:22;;;;;;;20.05;6.60;;;;;;;14.45;77.67;100248.14;123340;1102;104366;-79
2023/04/22 08:55:55;;;;;;;13.83;5.53;;;;;;;14.49;76.69;100245.58;123226;1105;104293;-80
2023/04/22 08:58:28;;;;;;;13.10;4.92;;;;;;;14.55;72.19;100239.48;123346;1104;104380;-80
2023/04/22 09:01:01;;;;;;;15.10;5.67;;;;;;;14.73;74.82;100245.08;123359;1105;104233;-80
2023/04/22 09:03:33;;;;;;;16.50;5.80;;;;;;;14.89;75.50;100243.53;123365;1105;104297;-79
2023/04/22 09:06:13;;;;;;;16.80;5.80;;;;;;;15.08;74.49;100247.34;123364;1105;104325;-79
2023/04/22 09:08:44;;;;;;;13.63;6.40;;;;;;;15.25;72.46;100246.65;123202;1105;104287;-81
2023/04/22 09:11:16;;;;;;;12.60;5.77;;;;;;;15.38;66.86;100237.10;123750;1105;104747;-80
2023/04/22 09:13:48;;;;;;;14.53;6.23;;;;;;;15.53;69.48;100239.05;123313;1102;104334;-80
2023/04/22 09:16:20;;;;;;;16.00;5.97;;;;;;;15.70;66.91;100240.11;123398;1102;104239;-80
2023/04/22 09:18:52;;;;;;;17.37;6.10;;;;;;;15.76;67.61;100240.18;123621;1105;104392;-82
2023/04/22 09:21:27;;;;;;;15.40;5.73;;;;;;;15.88;69.97;100234.17;123558;1105;104326;-83
2023/04/22 09:24:01;;;;;;;13.25;5.75;;;;;;;15.97;67.39;100238.65;123742;1105;104261;-81
2023/04/22 09:26:32;;;;;;;17.10;5.40;;;;;;;16.12;69.31;100236.14;123401;1105;104329;-82
2023/04/22 09:29:08;;;;;;;17.60;5.80;;;;;;;16.23;64.30;100238.01;123283;1105;104364;-79
2023/04/22 09:31:39;;;;;;;14.63;6.37;;;;;;;16.39;64.41;100234.59;123397;1104;104275;-80
2023/04/22 09:34:10;;;;;;;14.77;5.80;;;;;;;16.53;64.62;100242.64;123397;1102;104239;-80
2023/04/22 09:36:45;;;;;;;11.47;4.97;;;;;;;16.75;61.78;100237.48;123450;1102;104690;-79
2023/04/22 09:39:17;;;;;;;12.77;5.90;;;;;;;16.89;62.36;100238.48;123657;1102;104172;-78
2023/04/22 09:41:56;;;;;;;10.57;5.67;;;;;;;17.02;62.37;100237.69;123460;1102;104296;-77
2023/04/22 09:44:29;;;;;;;16.77;5.80;;;;;;;17.15;59.78;100232.45;123405;1103;104321;-77
2023/04/22 09:47:00;;;;;;;14.60;5.53;;;;;;;17.31;63.89;100222.78;123516;1105;104316;-80
2023/04/22 09:49:36;;;;;;;15.83;6.07;;;;;;;17.38;55.14;100229.89;123790;1105;104409;-81
2023/04/22 09:52:07;;;;;;;9.40;5.13;;;;;;;17.44;53.29;100227.27;123799;1105;104258;-80
2023/04/22 09:54:50;;;;;;;14.57;5.60;;;;;;;17.46;55.06;100224.62;123537;1102;104227;-79
2023/04/22 09:57:23;;;;;;;13.90;6.17;;;;;;;17.50;56.47;100235.23;123480;1102;104252;-79
2023/04/22 09:59:58;;;;;;;11.70;5.03;;;;;;;17.51;56.88;100225.50;123545;1102;104393;-79
2023/04/22 10:02:31;;;;;;;13.00;5.67;;;;;;;17.54;55.64;100231.70;123407;1102;104428;-79
2023/04/22 10:05:03;;;;;;;13.93;6.17;;;;;;;17.66;58.76;100227.33;123507;1105;104222;-81
2023/04/22 10:07:35;;;;;;;12.80;5.93;;;;;;;17.79;58.45;100227.36;123695;1102;104367;-81
2023/04/22 10:10:08;;;;;;;11.40;5.83;;;;;;;17.91;58.19;100220.33;123386;1103;104185;-80
2023/04/22 10:12:40;;;;;;;9.83;5.67;;;;;;;17.89;54.24;100214.14;123466;1105;104217;-82
2023/04/22 10:15:12;;;;;;;12.83;5.87;;;;;;;17.94;52.97;100221.20;123492;1101;104277;-82
2023/04/22 10:17:46;;;;;;;14.40;5.70;;;;;;;18.02;54.73;100207.94;123559;1102;104201;-81
2023/04/22 10:20:17;;;;;;;;;;;;;;;18.11;54.73;100209.72;123949;1102;104233;-83
2023/04/22 10:22:48;;;;;;;14.37;6.20;;;;;;;18.11;50.66;100220.34;123787;1102;102032;-81
2023/04/22 10:25:25;;;;;;;11.13;5.73;;;;;;;18.04;52.39;100215.91;123541;1105;101934;-83
2023/04/22 10:28:01;;;;;;;12.37;5.53;;;;;;;17.98;51.46;100218.55;123625;1105;104405;-80
2023/04/22 10:30:36;;;;;;;11.07;5.70;;;;;;;17.97;50.57;100215.02;123506;1105;104324;-82
2023/04/22 10:33:37;;;;;;;13.33;5.83;;;;;;;17.95;52.14;100207.05;123600;1103;102188;-80
2023/04/22 10:36:11;;;;;;;10.50;5.47;;;;;;;18.02;52.10;100201.75;123956;1105;105830;-83
2023/04/22 10:39:03;;;;;;;13.28;5.90;;;;;;;18.02;46.15;100225.64;123823;1102;104208;-81
2023/04/22 10:41:36;;;;;;;14.10;6.20;;;;;;;18.01;49.68;100198.19;123621;1105;104361;-81
2023/04/22 10:44:08;;;;;;;11.17;5.33;;;;;;;18.11;50.56;100199.97;123565;1105;104284;-81
2023/04/22 10:47:01;;;;;;;10.93;5.83;;;;;;;18.19;43.64;100193.79;123621;1105;110813;-80
2023/04/22 10:49:33;;;;;;;13.07;6.13;;;;;;;18.16;50.06;100184.05;123553;1102;104275;-79
2023/04/22 10:52:08;;;;;;;11.93;5.77;;;;;;;18.07;49.33;100189.35;123506;1102;104450;-80
2023/04/22 10:55:00;;;;;;;11.50;5.27;;;;;;;17.98;49.26;100192.00;123572;1102;104371;-80
2023/04/22 10:57:36;;;;;;;11.63;5.50;;;;;;;17.77;45.27;100196.37;123460;1103;104274;-80
2023/04/22 11:00:26;;;;;;;10.93;5.50;;;;;;;17.60;44.08;100210.48;123498;1105;104290;-80
2023/04/22 11:03:10;;;;;;;12.73;5.30;;;;;;;17.53;46.91;100203.42;123457;1105;104303;-85
2023/04/22 11:05:42;;;;;;;11.00;5.10;;;;;;;17.55;46.95;100206.08;123600;1105;104374;-82
2023/04/22 11:08:22;;;;;;;12.20;5.70;;;;;;;17.66;46.03;100199.02;123719;1105;104178;-81
2023/04/22 11:11:07;;;;;;;8.17;4.83;;;;;;;17.84;47.76;100187.55;123602;1105;104367;-81
2023/04/22 11:13:41;;;;;;;9.63;4.77;;;;;;;17.98;46.37;100194.66;123406;1105;104280;-78
2023/04/22 11:16:12;;;;;;;16.52;5.35;;;;;;;18.03;46.01;100185.83;123563;1102;104354;-81
2023/04/22 11:18:46;;;;;;;9.60;4.73;;;;;;;18.09;46.89;100182.27;123657;1105;104281;-81
2023/04/22 11:21:18;;;;;;;9.00;4.73;;;;;;;18.04;45.40;100195.53;124043;1102;104236;-79
2023/04/22 11:23:53;;;;;;;11.37;5.17;;;;;;;18.00;44.19;100192.87;123239;1102;104264;-81
2023/04/22 11:26:36;;;;;;;10.43;4.77;;;;;;;17.85;38.73;100194.61;123363;1102;104280;-78
2023/04/22 11:29:08;;;;;;;7.43;4.17;;;;;;;17.65;38.30;100201.66;123373;1105;104313;-80